Time;durP1;ratioP1;P1;durP2;ratioP2;P2;SDS_P1;SDS_P2;PMS_P1;PMS_P2;Temp;Humidity;BMP_temperature;BMP_pressure;BME280_temperature;BME280_humidity;BME280_pressure;Samples;Min_cycle;Max_cycle;Signal;HPM_P1;HPM_P2
2021/03/11 00:01:42;;;;;;;47.38;21.70;;;5.60;99.90;;;;;;5066940;28;20045;-59
2021/03/11 00:04:08;;;;;;;43.08;21.75;;;5.60;99.90;;;;;;5078512;28;20041;-59
2021/03/11 00:06:34;;;;;;;40.03;19.42;;;5.60;99.90;;;;;;5074128;28;20079;-59
2021/03/11 00:08:59;;;;;;;39.92;19.10;;;5.60;99.90;;;;;;5074856;28;20045;-59
2021/03/11 00:11:25;;;;;;;40.80;19.52;;;5.60;99.90;;;;;;5067839;28;20048;-59
2021/03/11 00:13:51;;;;;;;31.33;17.13;;;5.70;99.90;;;;;;5073594;28;20053;-59
2021/03/11 00:16:17;;;;;;;41.17;20.90;;;5.70;99.90;;;;;;5076623;28;20045;-59
2021/03/11 00:18:42;;;;;;;40.50;19.85;;;5.70;99.90;;;;;;5075977;28;20093;-59
2021/03/11 00:21:08;;;;;;;44.83;21.45;;;5.60;99.90;;;;;;5070087;28;20049;-59
2021/03/11 00:23:34;;;;;;;35.15;19.27;;;5.70;99.90;;;;;;5077760;28;20047;-60
2021/03/11 00:26:00;;;;;;;37.53;19.60;;;5.70;99.90;;;;;;5070049;28;20480;-60
2021/03/11 00:28:26;;;;;;;40.63;19.27;;;5.70;99.90;;;;;;5074489;28;20041;-59
2021/03/11 00:30:51;;;;;;;40.85;19.83;;;5.70;99.90;;;;;;5070426;28;20132;-59
2021/03/11 00:33:17;;;;;;;50.72;24.20;;;5.70;99.90;;;;;;5075105;28;20052;-59
2021/03/11 00:35:43;;;;;;;39.97;18.92;;;5.70;99.90;;;;;;5081123;28;20044;-59
2021/03/11 00:38:09;;;;;;;40.53;21.50;;;5.70;99.90;;;;;;5075190;28;20401;-59
2021/03/11 00:40:36;;;;;;;38.63;21.08;;;5.80;99.90;;;;;;5068356;28;20045;-59
2021/03/11 00:43:02;;;;;;;47.25;22.52;;;5.70;99.90;;;;;;5076717;28;20053;-59
2021/03/11 00:45:28;;;;;;;46.30;22.00;;;5.70;99.90;;;;;;5081226;28;20044;-59
2021/03/11 00:47:53;;;;;;;32.45;18.13;;;5.80;99.90;;;;;;5072339;28;20048;-61
2021/03/11 00:50:21;;;;;;;44.92;21.98;;;5.80;99.90;;;;;;5063885;28;20051;-59
2021/03/11 00:52:48;;;;;;;41.55;19.98;;;5.80;99.90;;;;;;5065249;28;20111;-59
2021/03/11 00:55:15;;;;;;;41.20;19.67;;;5.80;99.90;;;;;;5063850;28;20037;-59
2021/03/11 00:57:41;;;;;;;34.27;17.20;;;5.80;99.90;;;;;;5063690;28;20083;-59
2021/03/11 01:00:15;;;;;;;38.65;18.23;;;5.80;99.90;;;;;;5066166;28;20040;-59
2021/03/11 01:02:41;;;;;;;39.85;20.17;;;5.80;99.90;;;;;;5074294;28;20053;-59
2021/03/11 01:05:08;;;;;;;44.83;20.52;;;5.80;99.90;;;;;;5076553;28;20061;-59
2021/03/11 01:07:33;;;;;;;44.10;21.27;;;5.80;99.90;;;;;;5071349;28;20037;-59
2021/03/11 01:09:59;;;;;;;31.05;15.90;;;5.90;99.90;;;;;;5068313;28;20045;-59
2021/03/11 01:12:28;;;;;;;41.20;20.90;;;5.80;99.90;;;;;;5067339;28;20099;-59
2021/03/11 01:14:54;;;;;;;49.50;22.17;;;5.90;99.90;;;;;;5063387;28;20416;-59
2021/03/11 01:17:20;;;;;;;28.25;16.05;;;5.90;99.90;;;;;;5063201;28;20045;-59
2021/03/11 01:19:45;;;;;;;38.65;19.98;;;5.80;99.90;;;;;;5073447;28;20037;-59
2021/03/11 01:22:11;;;;;;;37.38;20.42;;;5.90;99.90;;;;;;5066766;28;20037;-59
2021/03/11 01:24:37;;;;;;;31.10;16.38;;;5.90;99.90;;;;;;5063318;28;20068;-59
2021/03/11 01:27:03;;;;;;;40.40;20.38;;;5.90;99.90;;;;;;5065620;28;20436;-59
2021/03/11 01:29:29;;;;;;;46.38;20.45;;;6.00;99.90;;;;;;5075302;28;20071;-59
2021/03/11 01:31:55;;;;;;;36.08;19.30;;;6.00;99.90;;;;;;5068912;28;20048;-59
2021/03/11 01:34:21;;;;;;;28.63;17.17;;;6.00;99.90;;;;;;5068912;28;20047;-59
2021/03/11 01:36:47;;;;;;;34.20;19.00;;;6.00;99.90;;;;;;5082188;28;20037;-59
2021/03/11 01:39:13;;;;;;;38.90;19.98;;;6.00;99.90;;;;;;5082128;28;20060;-59
2021/03/11 01:41:38;;;;;;;31.05;17.10;;;6.00;99.90;;;;;;5082193;28;20059;-59
2021/03/11 01:44:04;;;;;;;39.50;21.10;;;6.00;99.90;;;;;;5082615;28;20040;-59
2021/03/11 01:46:31;;;;;;;31.75;16.35;;;6.00;99.90;;;;;;5081700;28;20056;-59
2021/03/11 01:48:57;;;;;;;40.13;19.45;;;6.00;99.90;;;;;;5082266;28;20044;-59
2021/03/11 01:51:24;;;;;;;38.13;19.50;;;6.00;99.90;;;;;;5081849;28;20294;-59
2021/03/11 01:53:51;;;;;;;35.85;19.02;;;6.10;99.90;;;;;;5082283;28;20044;-59
2021/03/11 01:56:17;;;;;;;43.50;19.92;;;6.10;99.90;;;;;;5082225;28;20071;-59
2021/03/11 01:58:43;;;;;;;35.60;17.00;;;6.10;99.90;;;;;;5081883;28;20048;-59
2021/03/11 02:01:10;;;;;;;45.42;20.20;;;6.00;99.90;;;;;;5082319;28;20049;-59
2021/03/11 02:03:36;;;;;;;34.45;18.30;;;6.10;99.90;;;;;;5081470;28;20098;-59
2021/03/11 02:06:03;;;;;;;32.30;15.65;;;6.10;99.90;;;;;;5082232;28;20048;-59
2021/03/11 02:08:29;;;;;;;26.80;14.82;;;6.10;99.90;;;;;;5081444;28;20040;-59
2021/03/11 02:10:56;;;;;;;30.52;16.05;;;6.10;99.90;;;;;;5083308;28;20036;-59
2021/03/11 02:13:42;;;;;;;32.67;17.70;;;6.10;99.90;;;;;;5067133;28;20163;-59
2021/03/11 02:16:23;;;;;;;35.15;19.17;;;6.10;99.90;;;;;;5075270;28;20048;-59
2021/03/11 02:19:26;;;;;;;33.33;17.65;;;6.10;99.90;;;;;;5079463;28;20140;-59
2021/03/11 02:22:02;;;;;;;23.65;13.27;;;6.20;99.90;;;;;;5076410;28;20044;-59
2021/03/11 02:24:50;;;;;;;27.10;15.13;;;6.20;99.90;;;;;;5082121;28;20450;-59
2021/03/11 02:27:32;;;;;;;21.50;13.40;;;6.20;99.90;;;;;;5085548;28;20067;-59
2021/03/11 02:29:59;;;;;;;31.60;16.73;;;6.30;99.90;;;;;;5084856;28;20048;-59
2021/03/11 02:32:26;;;;;;;32.80;16.80;;;6.20;99.90;;;;;;5084555;28;20306;-59
2021/03/11 02:34:59;;;;;;;31.17;17.70;;;6.30;99.90;;;;;;5074889;28;20049;-59
2021/03/11 02:37:42;;;;;;;33.53;17.33;;;6.30;99.90;;;;;;5085455;28;20095;-60
2021/03/11 02:40:20;;;;;;;25.67;13.55;;;6.30;99.90;;;;;;5075904;28;20076;-59
2021/03/11 02:42:48;;;;;;;24.33;13.98;;;6.30;99.90;;;;;;5085319;28;20075;-59
2021/03/11 02:45:17;;;;;;;31.13;14.82;;;6.30;99.90;;;;;;5085532;28;20049;-59
2021/03/11 02:47:44;;;;;;;27.50;16.05;;;6.30;99.90;;;;;;5084725;28;20051;-59
2021/03/11 02:50:11;;;;;;;23.70;12.93;;;6.40;99.90;;;;;;5085437;28;20045;-61
2021/03/11 02:52:37;;;;;;;31.73;16.70;;;6.40;99.90;;;;;;5085112;28;20070;-59
2021/03/11 02:55:04;;;;;;;21.83;12.50;;;6.40;99.90;;;;;;5085558;28;20112;-59
2021/03/11 02:57:31;;;;;;;26.73;15.75;;;6.40;99.90;;;;;;5084824;28;20036;-59
2021/03/11 02:59:58;;;;;;;25.05;15.27;;;6.40;99.90;;;;;;5082576;28;20047;-59
2021/03/11 03:02:26;;;;;;;26.38;14.35;;;6.40;99.90;;;;;;5082251;28;20492;-59
2021/03/11 03:04:56;;;;;;;29.45;17.02;;;6.40;99.90;;;;;;5085080;28;20055;-59
2021/03/11 03:07:23;;;;;;;29.17;15.35;;;6.40;99.90;;;;;;5082157;28;20051;-59
2021/03/11 03:09:53;;;;;;;22.70;13.93;;;6.40;99.90;;;;;;5085330;28;20044;-59
2021/03/11 03:12:21;;;;;;;30.38;16.25;;;6.40;99.90;;;;;;5079186;28;20078;-59
2021/03/11 03:14:47;;;;;;;;;;;6.50;99.90;;;;;;5085249;28;20041;-59
2021/03/11 03:17:16;;;;;;;34.15;16.08;;;6.50;99.90;;;;;;5083835;28;19931;-59
2021/03/11 03:19:42;;;;;;;29.30;15.95;;;6.50;99.90;;;;;;5084577;28;20044;-61
2021/03/11 03:22:10;;;;;;;22.70;13.52;;;6.40;99.90;;;;;;5070652;28;20055;-60
2021/03/11 03:24:37;;;;;;;26.95;14.13;;;6.50;99.90;;;;;;5074638;28;20043;-59
2021/03/11 03:27:03;;;;;;;23.30;13.70;;;6.50;99.90;;;;;;5085158;28;20044;-59
2021/03/11 03:29:29;;;;;;;25.88;15.20;;;6.50;99.90;;;;;;5083844;28;20049;-59
2021/03/11 03:31:55;;;;;;;33.50;15.98;;;6.50;99.90;;;;;;5084651;28;20041;-60
2021/03/11 03:34:21;;;;;;;25.52;14.90;;;6.50;99.90;;;;;;5084111;28;20067;-59
2021/03/11 03:36:46;;;;;;;23.75;14.35;;;6.50;99.90;;;;;;5075832;28;20057;-59
2021/03/11 03:39:13;;;;;;;24.58;14.60;;;6.50;99.90;;;;;;5076639;28;20055;-59
2021/03/11 03:41:44;;;;;;;18.80;11.30;;;6.50;99.90;;;;;;5076012;28;20078;-59
2021/03/11 03:44:12;;;;;;;25.77;14.32;;;6.50;99.90;;;;;;5073485;28;20044;-60
2021/03/11 03:46:39;;;;;;;26.27;13.95;;;6.50;99.90;;;;;;5072966;28;20143;-60
2021/03/11 03:49:09;;;;;;;24.52;14.25;;;6.50;99.90;;;;;;5066821;28;20056;-59
2021/03/11 03:51:37;;;;;;;22.15;13.88;;;6.50;99.90;;;;;;5067129;28;20056;-59
2021/03/11 03:54:17;;;;;;;26.63;15.50;;;6.50;99.90;;;;;;5074454;28;20426;-59
2021/03/11 03:57:02;;;;;;;23.35;12.43;;;6.60;99.90;;;;;;5077635;28;20055;-59
2021/03/11 03:59:35;;;;;;;23.88;14.45;;;6.60;99.90;;;;;;5074636;28;20060;-58
2021/03/11 04:02:04;;;;;;;26.98;14.40;;;6.60;99.90;;;;;;5067264;28;20065;-61
2021/03/11 04:04:33;;;;;;;24.52;15.05;;;6.60;99.90;;;;;;5074485;28;20051;-59
2021/03/11 04:07:01;;;;;;;24.48;15.43;;;6.60;99.90;;;;;;5067667;28;20090;-59
2021/03/11 04:09:28;;;;;;;33.70;16.70;;;6.70;99.90;;;;;;5074702;28;20045;-59
2021/03/11 04:11:56;;;;;;;;;;;6.70;99.90;;;;;;5067834;28;20489;-59
2021/03/11 04:14:23;;;;;;;23.15;12.88;;;6.70;99.90;;;;;;5074796;28;19927;-59
2021/03/11 04:16:51;;;;;;;31.05;15.15;;;6.80;99.90;;;;;;5076804;28;20048;-60
2021/03/11 04:19:19;;;;;;;31.27;16.23;;;6.80;99.90;;;;;;5075856;28;20064;-59
2021/03/11 04:21:45;;;;;;;34.47;16.75;;;6.80;99.90;;;;;;5077334;28;20045;-59
2021/03/11 04:24:12;;;;;;;33.20;16.70;;;6.80;99.90;;;;;;5071334;28;20044;-59
2021/03/11 04:26:39;;;;;;;22.10;14.15;;;6.90;99.90;;;;;;5077820;28;20049;-59
2021/03/11 04:29:06;;;;;;;30.33;15.15;;;6.80;99.90;;;;;;5074716;28;20044;-60
2021/03/11 04:31:32;;;;;;;21.17;13.27;;;6.90;99.90;;;;;;5069866;28;20048;-60
2021/03/11 04:33:59;;;;;;;26.87;15.73;;;7.00;99.90;;;;;;5072656;28;20464;-59
2021/03/11 04:36:27;;;;;;;26.77;14.90;;;7.00;99.90;;;;;;5081579;28;20515;-59
2021/03/11 04:38:54;;;;;;;24.75;14.30;;;7.00;99.90;;;;;;5068767;28;20043;-60
2021/03/11 04:41:20;;;;;;;27.85;15.88;;;7.10;99.90;;;;;;5073755;28;20048;-59
2021/03/11 04:43:47;;;;;;;24.23;14.20;;;7.10;99.90;;;;;;5081195;28;20051;-60
2021/03/11 04:46:14;;;;;;;31.52;18.60;;;7.10;99.90;;;;;;5074665;28;20653;-59
2021/03/11 04:48:40;;;;;;;24.48;15.07;;;7.20;99.90;;;;;;5064965;28;20041;-60
2021/03/11 04:51:07;;;;;;;28.60;15.82;;;7.20;99.90;;;;;;5070688;28;20143;-60
2021/03/11 04:53:33;;;;;;;23.63;14.68;;;7.30;99.90;;;;;;5068878;28;20048;-59
2021/03/11 04:55:59;;;;;;;25.13;16.30;;;7.30;99.90;;;;;;5075741;28;20295;-59
2021/03/11 04:58:28;;;;;;;27.27;16.05;;;7.40;99.90;;;;;;5068594;28;20056;-59
2021/03/11 05:00:55;;;;;;;23.23;14.40;;;7.40;99.90;;;;;;5081797;28;20040;-59
2021/03/11 05:03:21;;;;;;;20.42;12.77;;;7.40;99.90;;;;;;5079675;28;20672;-59
2021/03/11 05:05:47;;;;;;;19.13;12.93;;;7.50;99.90;;;;;;5077729;28;20157;-60
2021/03/11 05:08:13;;;;;;;17.90;11.52;;;7.50;99.90;;;;;;5079203;28;20155;-59
2021/03/11 05:10:40;;;;;;;16.25;11.52;;;7.50;99.90;;;;;;5079175;28;20067;-60
2021/03/11 05:13:06;;;;;;;19.77;12.87;;;7.60;99.90;;;;;;5078245;28;20044;-60
2021/03/11 05:15:32;;;;;;;22.63;14.05;;;7.60;99.90;;;;;;5082383;28;20045;-59
2021/03/11 05:17:58;;;;;;;17.83;11.68;;;7.60;99.90;;;;;;5075464;28;20064;-59
2021/03/11 05:20:25;;;;;;;19.20;12.35;;;8.10;99.90;;;;;;5081776;28;20538;-59
2021/03/11 05:22:52;;;;;;;23.08;13.98;;;8.00;99.90;;;;;;5074231;28;20041;-59
2021/03/11 05:25:18;;;;;;;21.42;13.80;;;8.00;99.90;;;;;;5072566;28;20049;-60
2021/03/11 05:27:43;;;;;;;18.05;12.43;;;8.00;99.90;;;;;;5070404;28;20384;-59
2021/03/11 05:30:12;;;;;;;23.42;14.30;;;8.10;99.90;;;;;;5063924;28;20075;-59
2021/03/11 05:32:39;;;;;;;22.15;14.07;;;8.10;99.90;;;;;;5071084;28;20078;-59
2021/03/11 05:35:06;;;;;;;18.83;12.45;;;8.20;99.90;;;;;;5082520;28;20048;-59
2021/03/11 05:37:32;;;;;;;22.30;14.38;;;8.20;99.90;;;;;;5082058;28;20044;-60
2021/03/11 05:39:58;;;;;;;22.40;13.77;;;8.20;99.90;;;;;;5065146;28;20041;-60
2021/03/11 05:42:25;;;;;;;18.67;13.23;;;8.10;99.90;;;;;;5068301;28;20033;-59
2021/03/11 05:44:52;;;;;;;24.95;14.75;;;8.10;99.90;;;;;;5078841;28;20037;-59
2021/03/11 05:47:19;;;;;;;19.05;11.75;;;8.20;99.90;;;;;;5069848;28;20047;-59
2021/03/11 05:49:45;;;;;;;19.98;12.45;;;8.20;99.90;;;;;;5068384;28;20052;-59
2021/03/11 05:52:12;;;;;;;21.63;12.70;;;8.20;99.90;;;;;;5066824;28;20044;-59
2021/03/11 05:54:38;;;;;;;18.10;12.35;;;8.20;99.90;;;;;;5082964;28;20060;-59
2021/03/11 05:57:06;;;;;;;19.05;11.88;;;8.20;99.90;;;;;;5076855;28;20048;-59
2021/03/11 05:59:34;;;;;;;19.83;13.65;;;8.20;99.90;;;;;;5062947;28;20061;-59
2021/03/11 06:02:05;;;;;;;23.40;14.55;;;8.20;99.90;;;;;;5067039;28;20381;-59
2021/03/11 06:04:35;;;;;;;25.90;14.10;;;8.40;99.90;;;;;;5086617;28;20470;-59
2021/03/11 06:07:02;;;;;;;21.63;12.75;;;8.40;99.90;;;;;;5077931;28;20481;-59
2021/03/11 06:09:29;;;;;;;22.42;12.77;;;8.40;99.90;;;;;;5081453;28;20043;-60
2021/03/11 06:11:56;;;;;;;23.00;11.82;;;8.40;99.90;;;;;;5083545;28;20178;-59
2021/03/11 06:14:31;;;;;;;28.02;14.77;;;8.50;99.90;;;;;;5083844;28;20040;-59
2021/03/11 06:17:09;;;;;;;21.10;12.75;;;8.50;99.90;;;;;;5069639;28;20045;-59
2021/03/11 06:19:35;;;;;;;;;;;8.50;99.90;;;;;;5084984;28;20249;-59
2021/03/11 06:22:02;;;;;;;23.70;14.93;;;8.50;99.90;;;;;;5084765;28;20121;-60
2021/03/11 06:24:28;;;;;;;22.93;14.03;;;8.50;99.90;;;;;;5080199;28;20089;-60
2021/03/11 06:26:55;;;;;;;19.77;13.52;;;8.60;99.90;;;;;;5072157;28;20127;-60
2021/03/11 06:29:43;;;;;;;16.35;11.23;;;8.50;99.90;;;;;;5067118;28;20049;-59
2021/03/11 06:32:10;;;;;;;22.05;13.60;;;8.60;99.90;;;;;;5072339;28;20053;-59
2021/03/11 06:34:43;;;;;;;19.63;12.03;;;8.60;99.90;;;;;;5079451;28;20052;-60
2021/03/11 06:37:13;;;;;;;20.08;12.55;;;8.60;99.90;;;;;;5072852;28;20048;-60
2021/03/11 06:39:40;;;;;;;20.40;10.98;;;8.60;99.90;;;;;;5071239;28;20119;-60
2021/03/11 06:42:07;;;;;;;13.30;9.15;;;8.50;99.90;;;;;;5072654;28;20390;-60
2021/03/11 06:44:44;;;;;;;13.60;8.70;;;8.50;99.90;;;;;;5081795;28;20042;-59
2021/03/11 06:47:12;;;;;;;14.10;9.27;;;8.70;99.90;;;;;;5076902;28;20149;-60
2021/03/11 06:49:59;;;;;;;14.35;8.70;;;8.70;99.90;;;;;;5077442;28;20060;-60
2021/03/11 06:52:25;;;;;;;12.02;8.40;;;8.70;99.90;;;;;;5083707;28;20044;-59
2021/03/11 06:55:06;;;;;;;14.63;8.90;;;8.70;99.90;;;;;;5073818;28;20100;-60
2021/03/11 06:57:36;;;;;;;22.23;10.93;;;8.80;99.90;;;;;;5076911;28;20140;-59
2021/03/11 07:00:15;;;;;;;19.05;10.45;;;8.80;99.90;;;;;;5078158;28;20057;-59
2021/03/11 07:02:57;;;;;;;14.85;11.10;;;8.90;99.90;;;;;;5077554;28;20135;-59
2021/03/11 07:05:25;;;;;;;17.58;8.68;;;8.90;99.90;;;;;;5080951;28;20561;-59
2021/03/11 07:08:16;;;;;;;17.30;9.80;;;8.90;99.90;;;;;;5074778;28;20055;-59
2021/03/11 07:10:43;;;;;;;12.68;9.55;;;9.00;99.90;;;;;;5077258;28;20047;-59
2021/03/11 07:13:10;;;;;;;14.73;9.45;;;9.00;99.90;;;;;;5067680;28;20641;-59
2021/03/11 07:15:37;;;;;;;14.65;9.15;;;9.00;99.90;;;;;;5077428;28;20045;-59
2021/03/11 07:18:07;;;;;;;15.27;8.57;;;9.00;99.90;;;;;;5074385;28;20493;-59
2021/03/11 07:20:35;;;;;;;20.42;10.68;;;9.00;99.90;;;;;;5070579;28;20051;-59
2021/03/11 07:23:05;;;;;;;16.65;9.05;;;9.00;99.90;;;;;;5079051;28;20487;-59
2021/03/11 07:25:32;;;;;;;11.98;7.88;;;9.00;99.90;;;;;;5086742;28;20040;-58
2021/03/11 07:27:59;;;;;;;18.00;8.82;;;9.10;99.90;;;;;;5067322;28;20100;-59
2021/03/11 07:30:25;;;;;;;;;;;9.10;99.90;;;;;;5084845;28;20105;-59
2021/03/11 07:33:01;;;;;;;13.10;9.13;;;9.20;99.90;;;;;;5074558;28;19924;-59
2021/03/11 07:35:29;;;;;;;15.88;8.32;;;9.10;99.90;;;;;;5073887;28;20055;-59
2021/03/11 07:38:02;;;;;;;16.45;8.13;;;9.10;99.90;;;;;;5082136;28;20048;-59
2021/03/11 07:40:32;;;;;;;26.10;9.05;;;9.30;99.90;;;;;;5070134;28;20076;-59
2021/03/11 07:42:58;;;;;;;15.82;8.05;;;9.30;99.90;;;;;;5068749;28;20064;-59
2021/03/11 07:45:25;;;;;;;17.05;8.27;;;9.30;99.90;;;;;;5065214;28;20037;-59
2021/03/11 07:47:51;;;;;;;23.63;9.45;;;9.20;99.90;;;;;;5072240;28;20048;-58
2021/03/11 07:50:18;;;;;;;22.88;9.20;;;9.30;99.90;;;;;;5071259;28;20044;-60
2021/03/11 07:52:44;;;;;;;19.75;8.07;;;9.30;99.90;;;;;;5079382;28;20041;-59
2021/03/11 07:55:11;;;;;;;25.92;8.57;;;9.20;99.90;;;;;;5074643;28;20049;-58
2021/03/11 07:57:44;;;;;;;15.45;7.35;;;9.30;99.90;;;;;;5078038;28;20094;-60
2021/03/11 08:00:13;;;;;;;23.35;9.02;;;9.30;99.90;;;;;;5067626;28;20060;-60
2021/03/11 08:02:44;;;;;;;33.15;9.68;;;9.30;99.90;;;;;;5069878;28;20102;-60
2021/03/11 08:05:11;;;;;;;18.15;7.10;;;9.30;99.90;;;;;;5080555;28;20047;-60
2021/03/11 08:08:17;;;;;;;21.52;7.72;;;9.40;99.90;;;;;;5079814;28;20044;-60
2021/03/11 08:10:53;;;;;;;15.68;6.53;;;9.40;99.90;;;;;;5078851;28;20044;-60
2021/03/11 08:13:35;;;;;;;24.45;7.68;;;9.40;99.90;;;;;;5081059;28;20052;-58
2021/03/11 08:16:22;;;;;;;19.42;6.38;;;9.40;99.90;;;;;;5069045;28;20313;-58
2021/03/11 08:18:52;;;;;;;22.73;6.95;;;9.40;99.90;;;;;;5078828;28;20143;-58
2021/03/11 08:21:23;;;;;;;26.45;7.30;;;9.40;99.90;;;;;;5080453;28;20082;-58
2021/03/11 08:23:50;;;;;;;21.45;5.72;;;9.40;99.90;;;;;;5073250;28;20045;-60
2021/03/11 08:26:38;;;;;;;19.60;6.07;;;9.50;99.90;;;;;;5071213;28;20049;-63
2021/03/11 08:29:24;;;;;;;20.77;4.70;;;9.60;99.90;;;;;;5066698;28;20144;-58
2021/03/11 08:31:50;;;;;;;29.05;6.07;;;9.70;99.90;;;;;;5066154;28;20055;-60
2021/03/11 08:34:36;;;;;;;30.55;6.30;;;9.70;99.90;;;;;;5069035;28;20059;-58
2021/03/11 08:37:21;;;;;;;26.38;5.75;;;9.70;99.90;;;;;;5074533;28;20071;-58
2021/03/11 08:39:48;;;;;;;28.15;6.22;;;9.60;99.90;;;;;;5075258;28;20458;-59
2021/03/11 08:42:45;;;;;;;27.95;7.15;;;9.60;99.90;;;;;;5076647;28;20056;-58
2021/03/11 08:45:11;;;;;;;38.45;8.20;;;9.60;99.90;;;;;;5073262;28;20037;-60
2021/03/11 08:48:10;;;;;;;38.67;7.10;;;9.70;99.90;;;;;;5075597;28;20044;-61
2021/03/11 08:50:35;;;;;;;33.92;7.25;;;9.70;99.90;;;;;;5071672;28;20060;-60
2021/03/11 08:53:01;;;;;;;40.67;7.78;;;9.70;99.90;;;;;;5074519;28;20041;-60
2021/03/11 08:55:33;;;;;;;43.92;6.70;;;9.70;99.90;;;;;;5076724;28;20049;-60
2021/03/11 08:57:59;;;;;;;43.83;8.00;;;9.70;99.90;;;;;;5070409;28;20059;-60
2021/03/11 09:01:01;;;;;;;37.28;8.02;;;9.70;99.90;;;;;;5074664;28;20127;-60
2021/03/11 09:03:49;;;;;;;51.45;7.57;;;9.80;99.90;;;;;;5076840;28;20044;-60
2021/03/11 09:06:17;;;;;;;39.00;8.52;;;9.90;99.90;;;;;;5078173;28;20515;-60
2021/03/11 09:08:47;;;;;;;43.83;8.68;;;10.00;99.90;;;;;;5074869;28;20112;-60
2021/03/11 09:11:15;;;;;;;49.38;9.13;;;9.90;99.90;;;;;;5070853;28;20056;-61
2021/03/11 09:13:43;;;;;;;37.75;7.90;;;10.00;99.90;;;;;;5082996;28;20040;-61
2021/03/11 09:16:10;;;;;;;45.38;8.25;;;10.10;99.90;;;;;;5080938;28;20044;-60
2021/03/11 09:18:36;;;;;;;35.40;9.47;;;10.10;99.90;;;;;;5077468;28;20063;-60
2021/03/11 09:21:06;;;;;;;43.97;9.25;;;10.20;99.90;;;;;;5074242;28;20044;-60
2021/03/11 09:23:42;;;;;;;42.50;7.32;;;10.20;99.90;;;;;;5071475;28;20045;-60
2021/03/11 09:26:28;;;;;;;41.92;8.40;;;10.20;99.90;;;;;;5079389;28;20327;-60
2021/03/11 09:28:54;;;;;;;41.85;9.88;;;10.30;99.90;;;;;;5071759;28;20040;-60
2021/03/11 09:31:24;;;;;;;42.72;7.55;;;10.30;99.90;;;;;;5074005;28;20533;-61
2021/03/11 09:33:52;;;;;;;38.17;9.00;;;10.30;99.90;;;;;;5081542;28;20052;-60
2021/03/11 09:36:17;;;;;;;33.45;8.27;;;10.30;99.90;;;;;;5069943;28;20127;-61
2021/03/11 09:38:44;;;;;;;37.58;6.80;;;10.30;99.90;;;;;;5081582;28;20496;-60
2021/03/11 09:41:10;;;;;;;48.13;7.93;;;10.30;99.90;;;;;;5075045;28;20047;-60
2021/03/11 09:43:41;;;;;;;32.00;6.45;;;10.40;99.90;;;;;;5074567;28;20034;-58
2021/03/11 09:46:15;;;;;;;41.83;8.10;;;10.30;99.90;;;;;;5078851;28;20045;-57
2021/03/11 09:48:44;;;;;;;46.72;10.25;;;10.40;99.90;;;;;;5075079;28;20045;-58
2021/03/11 09:51:30;;;;;;;35.78;7.57;;;10.40;99.90;;;;;;5073169;28;20043;-60
2021/03/11 09:54:04;;;;;;;40.95;9.85;;;10.40;99.90;;;;;;5077947;28;20551;-60
2021/03/11 09:56:31;;;;;;;36.05;7.57;;;10.30;99.90;;;;;;5076705;28;20041;-61
2021/03/11 09:59:05;;;;;;;31.40;8.82;;;10.10;99.90;;;;;;5077986;28;20053;-60
2021/03/11 10:01:41;;;;;;;37.17;7.43;;;9.90;99.90;;;;;;5072881;28;20045;-61
2021/03/11 10:04:18;;;;;;;49.05;8.20;;;9.90;99.90;;;;;;5077178;28;20048;-60
2021/03/11 10:06:54;;;;;;;44.58;7.95;;;9.80;99.90;;;;;;5070753;28;20041;-60
2021/03/11 10:09:20;;;;;;;45.17;8.23;;;9.80;99.90;;;;;;5074234;28;20045;-59
2021/03/11 10:11:52;;;;;;;34.47;8.45;;;9.70;99.90;;;;;;5076629;28;20048;-59
2021/03/11 10:14:24;;;;;;;43.97;10.98;;;9.70;99.90;;;;;;5072614;28;20632;-60
2021/03/11 10:16:52;;;;;;;34.13;6.95;;;9.60;99.90;;;;;;5074880;28;20381;-60
2021/03/11 10:19:20;;;;;;;50.00;9.20;;;9.40;99.90;;;;;;5069788;28;20041;-58
2021/03/11 10:21:47;;;;;;;41.60;9.18;;;9.20;99.90;;;;;;5066079;28;20049;-58
2021/03/11 10:24:28;;;;;;;54.35;9.00;;;9.10;99.90;;;;;;5071770;28;20045;-58
2021/03/11 10:26:54;;;;;;;43.53;9.77;;;9.80;99.90;;;;;;5070479;28;20048;-57
2021/03/11 10:29:20;;;;;;;45.20;8.57;;;9.60;99.90;;;;;;5071390;28;20048;-57
2021/03/11 10:31:46;;;;;;;36.03;8.18;;;9.50;99.90;;;;;;5069829;28;20101;-57
2021/03/11 10:34:12;;;;;;;46.58;9.35;;;9.50;99.90;;;;;;5069433;28;20067;-57
2021/03/11 10:36:41;;;;;;;35.90;9.13;;;9.40;99.90;;;;;;5070440;28;20543;-59
2021/03/11 10:39:14;;;;;;;38.97;7.10;;;9.30;99.90;;;;;;5075228;28;20036;-58
2021/03/11 10:42:02;;;;;;;41.90;8.50;;;9.30;99.90;;;;;;5067633;28;20041;-59
2021/03/11 10:44:32;;;;;;;47.80;8.75;;;9.30;99.90;;;;;;5075092;28;20036;-59
2021/03/11 10:47:19;;;;;;;45.55;7.00;;;9.20;99.90;;;;;;5078834;28;20044;-59
2021/03/11 10:49:47;;;;;;;40.40;6.82;;;9.10;99.90;;;;;;5079044;28;20056;-58
2021/03/11 10:52:17;;;;;;;36.25;8.18;;;9.00;99.90;;;;;;5075664;28;20041;-58
2021/03/11 10:54:43;;;;;;;38.88;7.72;;;8.90;99.90;;;;;;5071006;28;20045;-58
2021/03/11 10:57:15;;;;;;;57.25;9.70;;;8.60;99.90;;;;;;5078917;28;20036;-59
2021/03/11 10:59:57;;;;;;;41.20;8.55;;;8.70;99.90;;;;;;5077172;28;20063;-59
2021/03/11 11:02:26;;;;;;;56.95;10.15;;;8.60;99.90;;;;;;5079773;28;20033;-59
2021/03/11 11:04:52;;;;;;;52.72;7.40;;;8.50;99.90;;;;;;5083140;28;20123;-59
2021/03/11 11:07:19;;;;;;;41.00;9.40;;;8.60;99.90;;;;;;5075565;28;20056;-59
2021/03/11 11:09:46;;;;;;;33.30;7.80;;;8.50;99.90;;;;;;5077783;28;20064;-59
2021/03/11 11:12:15;;;;;;;43.47;8.77;;;8.50;99.90;;;;;;5070296;28;20040;-58
2021/03/11 11:14:43;;;;;;;55.35;8.43;;;8.50;99.90;;;;;;5078254;28;20036;-58
2021/03/11 11:17:09;;;;;;;46.55;8.07;;;8.70;99.90;;;;;;5077590;28;20096;-58
2021/03/11 11:19:36;;;;;;;41.10;6.45;;;8.50;99.90;;;;;;5082772;28;20045;-59
2021/03/11 11:22:02;;;;;;;51.65;7.93;;;8.50;99.90;;;;;;5079588;28;20041;-59
2021/03/11 11:24:28;;;;;;;54.00;8.85;;;8.60;99.90;;;;;;5080510;28;20521;-59
2021/03/11 11:26:55;;;;;;;49.25;8.43;;;8.50;99.90;;;;;;5077454;28;20045;-59
2021/03/11 11:29:24;;;;;;;45.00;10.02;;;8.80;99.90;;;;;;5077224;28;20054;-58
2021/03/11 11:31:51;;;;;;;47.17;9.30;;;8.60;99.90;;;;;;5078235;28;20056;-58
2021/03/11 11:34:17;;;;;;;51.72;8.40;;;8.80;99.90;;;;;;5075794;28;20048;-58
2021/03/11 11:36:42;;;;;;;41.00;10.43;;;8.80;99.90;;;;;;5079319;28;20106;-58
2021/03/11 11:39:09;;;;;;;30.48;7.75;;;8.70;99.90;;;;;;5072958;28;20049;-58
2021/03/11 11:41:37;;;;;;;39.67;9.68;;;8.90;99.90;;;;;;5080236;28;20060;-58
2021/03/11 11:44:05;;;;;;;49.47;8.27;;;8.70;99.90;;;;;;5080398;28;20066;-60
2021/03/11 11:46:30;;;;;;;46.47;8.55;;;8.80;99.90;;;;;;5070496;28;20433;-62
2021/03/11 11:48:57;;;;;;;49.30;11.23;;;8.80;99.90;;;;;;5077198;28;20043;-62
2021/03/11 11:51:23;;;;;;;39.80;9.27;;;8.80;99.90;;;;;;5077801;28;20072;-59
2021/03/11 11:53:49;;;;;;;36.13;6.90;;;8.60;99.90;;;;;;5075634;28;20075;-58
2021/03/11 11:56:14;;;;;;;44.35;7.47;;;8.80;99.90;;;;;;5076420;28;20492;-57
2021/03/11 11:58:44;;;;;;;49.90;9.52;;;8.80;99.90;;;;;;5071738;28;20610;-58
2021/03/11 12:01:11;;;;;;;40.55;7.30;;;9.00;99.90;;;;;;5077239;28;20040;-58
2021/03/11 12:03:37;;;;;;;41.30;7.57;;;9.20;99.90;;;;;;5080821;28;20045;-58
2021/03/11 12:06:04;;;;;;;37.55;7.65;;;9.30;99.90;;;;;;5075463;28;20041;-64
2021/03/11 12:08:30;;;;;;;45.75;9.02;;;9.20;99.90;;;;;;5071146;28;20047;-60
2021/03/11 12:10:56;;;;;;;44.20;6.65;;;9.30;99.90;;;;;;5073348;28;20376;-59
2021/03/11 12:13:22;;;;;;;57.47;7.75;;;9.40;99.90;;;;;;5073770;28;20044;-60
2021/03/11 12:15:48;;;;;;;34.10;9.15;;;9.40;99.90;;;;;;5082262;28;20068;-59
2021/03/11 12:18:14;;;;;;;43.88;7.97;;;9.30;99.90;;;;;;5074351;28;20032;-57
2021/03/11 12:20:40;;;;;;;43.35;8.07;;;9.50;99.90;;;;;;5080674;28;20041;-57
2021/03/11 12:23:06;;;;;;;29.95;5.80;;;9.30;99.90;;;;;;5074009;28;20163;-58
2021/03/11 12:25:34;;;;;;;42.15;7.35;;;9.40;99.90;;;;;;5076278;28;20040;-60
2021/03/11 12:28:00;;;;;;;34.67;7.68;;;9.50;99.90;;;;;;5073780;28;20048;-56
2021/03/11 12:30:26;;;;;;;33.13;5.40;;;9.50;99.90;;;;;;5069359;28;20094;-56
2021/03/11 12:32:52;;;;;;;36.33;7.60;;;9.50;99.90;;;;;;5078569;28;20040;-56
2021/03/11 12:35:18;;;;;;;30.15;6.25;;;9.50;99.90;;;;;;5078675;28;20552;-56
2021/03/11 12:37:44;;;;;;;31.52;5.97;;;9.60;99.90;;;;;;5073096;28;20040;-57
2021/03/11 12:40:12;;;;;;;21.63;5.63;;;9.60;99.90;;;;;;5075270;28;20040;-59
2021/03/11 12:42:39;;;;;;;32.65;5.18;;;9.70;99.90;;;;;;5075807;28;20049;-58
2021/03/11 12:45:07;;;;;;;36.47;5.13;;;9.70;99.90;;;;;;5078232;28;20040;-55
2021/03/11 12:47:33;;;;;;;30.80;8.32;;;9.80;99.90;;;;;;5077594;28;20107;-56
2021/03/11 12:49:59;;;;;;;29.67;4.70;;;9.80;99.90;;;;;;5078653;28;20055;-57
2021/03/11 12:52:25;;;;;;;20.65;5.38;;;9.80;99.90;;;;;;5078731;28;20108;-57
2021/03/11 12:54:51;;;;;;;18.60;4.43;;;9.80;99.90;;;;;;5071575;28;20051;-57